• Join FlightAware (Why Join?)
  • Login
  • US Flag 
08:28PM EDT


 

Airport Tracker/Info


-or-


 

Live Flight TrackerFlight Track Log ✈ WJA482 ✈ 14-May-2012 ✈ CYLW - CYEG

Flight Track Log - Related Links

Times and Time Zones

All times are in EDT time to prevent confusion due to time zone crossing. See the WJA482 flight status page for this flight to view local times or setup timezone preferences in your user account.

Time Position Orientation Groundspeed Altitude Reporting Facility
EDT Latitude Longitude Course Direction KTS MPH feet Rate Location/Type
04:21PM 49.9833 -119.3500 18° North 280 322 3,200  Level Vancouver Center
04:26PM 50.2500 -119.2167 37° Northeast 350 403 15,600 2,820 Climbing Edmonton Center
04:27PM 50.3333 -119.1167 32° Northeast 370 426 19,200 3,120 Climbing Edmonton Center
04:28PM 50.4333 -119.0167 37° Northeast 390 449 21,900 2,700 Climbing Edmonton Center
04:29PM 50.5333 -118.9000 37° Northeast 410 472 24,700 2,580 Climbing Edmonton Center
04:30PM 50.6167 -118.8000 36° Northeast 430 495 27,100 2,400 Climbing Edmonton Center
04:31PM 50.7333 -118.6667 32° Northeast 450 518 29,500 2,160 Climbing Edmonton Center
04:32PM 50.8333 -118.5667 40° Northeast 460 529 31,500 2,400 Climbing Edmonton Center
04:33PM 50.9333 -118.4333 46° Northeast 450 518 34,300 2,220 Climbing Edmonton Center
04:34PM 51.0667 -118.2167 North 450 518 36,700 1,680 Climbing Vancouver Center
04:35PM 51.1333 -118.2000 32° Northeast 440 506 37,700 1,380 Climbing Edmonton Center
04:36PM 51.2333 -118.1000 42° Northeast 450 518 39,000 540 Climbing Edmonton Center
04:37PM 51.3833 -117.8833 23° Northeast 450 518 39,000  Level Vancouver Center
04:38PM 51.4333 -117.8500 40° Northeast 440 506 39,000  Level Edmonton Center
04:39PM 51.5333 -117.7167 32° Northeast 440 506 39,000  Level Edmonton Center
04:40PM 51.6333 -117.6167 41° Northeast 440 506 39,000  Level Edmonton Center
04:41PM 51.7167 -117.5000 46° Northeast 440 506 39,000  Level Edmonton Center
04:42PM 51.8167 -117.3333 54° Northeast 440 506 39,000  Level Edmonton Center
04:43PM 51.8833 -117.1833 51° Northeast 450 518 39,000  Level Edmonton Center
04:44PM 51.9667 -117.0167 51° Northeast 450 518 39,000  Level Edmonton Center
04:45PM 52.0500 -116.8500 59° Northeast 450 518 39,000  Level Edmonton Center
04:46PM 52.1167 -116.6667 44° Northeast 460 529 39,000 -120 Level Edmonton Center
04:47PM 52.2000 -116.5333 59° Northeast 460 529 38,800 -1,320 Descending Edmonton Center
04:48PM 52.2667 -116.3500 48° Northeast 450 518 36,400 -2,460 Descending Edmonton Center
04:49PM 52.3500 -116.2000 51° Northeast 450 518 33,900 -2,400 Descending Edmonton Center
04:50PM 52.4333 -116.0333 59° Northeast 450 518 31,600 -2,160 Descending Edmonton Center
04:51PM 52.5000 -115.8500 54° Northeast 440 506 29,600 -1,560 Descending Edmonton Center
04:52PM 52.5667 -115.7000 54° Northeast 430 495 28,500 -840 Descending Edmonton Center
04:53PM 52.6333 -115.5500 50° Northeast 430 495 28,000 -1,500 Descending Edmonton Center
04:54PM 52.7167 -115.3833 56° Northeast 430 495 25,500 -2,760 Descending Edmonton Center
04:55PM 52.7833 -115.2167 50° Northeast 440 506 22,500 -3,000 Descending Edmonton Center
04:56PM 52.8667 -115.0500 54° Northeast 440 506 19,600 -2,580 Descending Edmonton Center
04:57PM 52.9333 -114.9000 72° East 430 495 17,400 -2,340 Descending Edmonton Center
04:58PM 52.9667 -114.7333 74° East 420 483 15,000 -2,580 Descending Edmonton Center
04:59PM 53.0000 -114.5333 70° East 400 460 12,300 -2,400 Descending Edmonton Center
05:00PM 53.0333 -114.3833 72° East 380 437 10,200 -1,380 Descending Edmonton Center
05:01PM 53.0667 -114.2167 77° East 330 380 9,600 -1,020 Descending Edmonton Center
05:02PM 53.0833 -114.1000 67° East 300 345 8,200 -1,260 Descending Edmonton Center
05:03PM 53.1167 -113.9667 74° East 290 334 7,100 -900 Descending Edmonton Center
05:04PM 53.1333 -113.8667 64° Northeast 250 288 6,400 -720 Descending Edmonton Center
05:05PM 53.1667 -113.7500 42° Northeast 220 253 5,700 -1,200 Descending Edmonton Center
05:06PM 53.2000 -113.7000 42° Northeast 200 230 4,100 -1,260 Descending Edmonton Center
05:07PM 53.2333 -113.6500 11° North 180 207 3,200 -900 Descending Edmonton Center
05:08PM 53.2833 -113.6333 42° Northeast 140 161 2,400 -480 Descending Edmonton Center
05:09PM 53.3167 -113.5833 42° Northeast 140 161 2,300 -120 Descending Edmonton Center